sensor_id;sensor_type;location;lat;lon;timestamp;P1;durP1;ratioP1;P2;durP2;ratioP2
57443;SDS011;43289;52.962;6.196;2024-03-23T00:55:49;24.05;;;6.03;;
57443;SDS011;43289;52.962;6.196;2024-03-23T00:58:15;20.20;;;5.43;;
57443;SDS011;43289;52.962;6.196;2024-03-23T01:00:41;19.55;;;5.32;;
57443;SDS011;43289;52.962;6.196;2024-03-23T01:03:07;26.30;;;6.93;;
57443;SDS011;43289;52.962;6.196;2024-03-23T01:05:33;22.83;;;6.10;;
57443;SDS011;43289;52.962;6.196;2024-03-23T01:07:59;24.77;;;8.05;;
57443;SDS011;43289;52.962;6.196;2024-03-23T01:10:25;19.48;;;6.90;;
57443;SDS011;43289;52.962;6.196;2024-03-23T01:12:51;23.70;;;5.95;;
57443;SDS011;43289;52.962;6.196;2024-03-23T01:15:17;21.88;;;6.50;;
57443;SDS011;43289;52.962;6.196;2024-03-23T01:17:43;21.25;;;5.93;;
57443;SDS011;43289;52.962;6.196;2024-03-23T01:20:09;18.83;;;6.38;;
57443;SDS011;43289;52.962;6.196;2024-03-23T01:22:35;18.63;;;5.82;;
57443;SDS011;43289;52.962;6.196;2024-03-23T01:25:01;29.95;;;7.20;;
57443;SDS011;43289;52.962;6.196;2024-03-23T01:27:27;23.05;;;5.45;;
57443;SDS011;43289;52.962;6.196;2024-03-23T01:29:53;19.58;;;7.65;;
57443;SDS011;43289;52.962;6.196;2024-03-23T01:32:19;21.05;;;6.35;;
57443;SDS011;43289;52.962;6.196;2024-03-23T01:34:46;24.08;;;6.60;;
57443;SDS011;43289;52.962;6.196;2024-03-23T01:37:12;17.05;;;6.90;;
57443;SDS011;43289;52.962;6.196;2024-03-23T01:39:38;26.00;;;6.72;;
57443;SDS011;43289;52.962;6.196;2024-03-23T01:42:04;19.27;;;7.00;;
57443;SDS011;43289;52.962;6.196;2024-03-23T01:44:30;32.15;;;6.95;;
57443;SDS011;43289;52.962;6.196;2024-03-23T01:46:56;21.75;;;5.78;;
57443;SDS011;43289;52.962;6.196;2024-03-23T01:49:21;23.35;;;5.95;;
57443;SDS011;43289;52.962;6.196;2024-03-23T01:51:47;20.17;;;5.53;;
57443;SDS011;43289;52.962;6.196;2024-03-23T01:54:13;15.43;;;5.05;;
57443;SDS011;43289;52.962;6.196;2024-03-23T01:56:39;21.27;;;6.78;;
57443;SDS011;43289;52.962;6.196;2024-03-23T01:59:05;20.15;;;6.55;;
57443;SDS011;43289;52.962;6.196;2024-03-23T02:01:37;22.20;;;5.47;;
57443;SDS011;43289;52.962;6.196;2024-03-23T02:04:02;17.60;;;6.50;;
57443;SDS011;43289;52.962;6.196;2024-03-23T02:06:28;21.48;;;5.65;;
57443;SDS011;43289;52.962;6.196;2024-03-23T02:08:54;18.70;;;5.97;;
57443;SDS011;43289;52.962;6.196;2024-03-23T02:11:20;22.75;;;7.22;;
57443;SDS011;43289;52.962;6.196;2024-03-23T02:13:46;18.08;;;5.72;;
57443;SDS011;43289;52.962;6.196;2024-03-23T02:16:12;19.30;;;5.97;;
57443;SDS011;43289;52.962;6.196;2024-03-23T02:18:40;18.70;;;5.25;;
57443;SDS011;43289;52.962;6.196;2024-03-23T02:21:06;25.27;;;5.18;;
57443;SDS011;43289;52.962;6.196;2024-03-23T02:23:32;15.18;;;5.38;;
57443;SDS011;43289;52.962;6.196;2024-03-23T02:25:57;18.95;;;6.03;;
57443;SDS011;43289;52.962;6.196;2024-03-23T02:28:25;21.10;;;6.32;;
57443;SDS011;43289;52.962;6.196;2024-03-23T02:30:51;17.25;;;5.40;;
57443;SDS011;43289;52.962;6.196;2024-03-23T02:33:18;16.70;;;6.30;;
57443;SDS011;43289;52.962;6.196;2024-03-23T02:35:44;19.23;;;5.43;;
57443;SDS011;43289;52.962;6.196;2024-03-23T02:38:10;21.80;;;7.05;;
57443;SDS011;43289;52.962;6.196;2024-03-23T02:40:36;24.23;;;6.40;;
57443;SDS011;43289;52.962;6.196;2024-03-23T02:43:02;24.05;;;7.30;;
57443;SDS011;43289;52.962;6.196;2024-03-23T02:45:29;22.38;;;5.38;;
57443;SDS011;43289;52.962;6.196;2024-03-23T02:47:54;18.38;;;7.38;;
57443;SDS011;43289;52.962;6.196;2024-03-23T02:50:20;18.13;;;5.70;;
57443;SDS011;43289;52.962;6.196;2024-03-23T02:52:46;25.60;;;7.00;;
57443;SDS011;43289;52.962;6.196;2024-03-23T02:55:12;18.30;;;5.85;;
57443;SDS011;43289;52.962;6.196;2024-03-23T02:57:38;19.30;;;6.18;;
57443;SDS011;43289;52.962;6.196;2024-03-23T03:00:04;19.48;;;5.90;;
57443;SDS011;43289;52.962;6.196;2024-03-23T03:02:31;19.75;;;6.00;;
57443;SDS011;43289;52.962;6.196;2024-03-23T03:04:57;18.58;;;6.40;;
57443;SDS011;43289;52.962;6.196;2024-03-23T03:07:23;18.40;;;6.00;;
57443;SDS011;43289;52.962;6.196;2024-03-23T03:09:49;15.98;;;5.25;;
57443;SDS011;43289;52.962;6.196;2024-03-23T03:12:14;25.05;;;6.53;;
57443;SDS011;43289;52.962;6.196;2024-03-23T03:14:40;31.08;;;5.88;;
57443;SDS011;43289;52.962;6.196;2024-03-23T03:17:05;26.73;;;7.30;;
57443;SDS011;43289;52.962;6.196;2024-03-23T03:19:31;19.70;;;5.65;;
57443;SDS011;43289;52.962;6.196;2024-03-23T03:21:57;17.48;;;5.28;;
57443;SDS011;43289;52.962;6.196;2024-03-23T03:24:23;17.65;;;5.90;;
57443;SDS011;43289;52.962;6.196;2024-03-23T03:26:48;20.15;;;6.50;;
57443;SDS011;43289;52.962;6.196;2024-03-23T03:29:15;19.33;;;5.22;;
57443;SDS011;43289;52.962;6.196;2024-03-23T03:31:40;12.48;;;5.55;;
57443;SDS011;43289;52.962;6.196;2024-03-23T03:34:07;14.02;;;5.18;;
57443;SDS011;43289;52.962;6.196;2024-03-23T03:36:33;15.10;;;5.40;;
57443;SDS011;43289;52.962;6.196;2024-03-23T03:38:59;15.43;;;5.30;;
57443;SDS011;43289;52.962;6.196;2024-03-23T03:41:24;21.30;;;5.30;;
57443;SDS011;43289;52.962;6.196;2024-03-23T03:43:50;20.13;;;5.38;;
57443;SDS011;43289;52.962;6.196;2024-03-23T03:46:16;15.70;;;4.93;;
57443;SDS011;43289;52.962;6.196;2024-03-23T03:48:42;14.30;;;5.60;;
57443;SDS011;43289;52.962;6.196;2024-03-23T03:51:10;21.05;;;5.45;;
57443;SDS011;43289;52.962;6.196;2024-03-23T03:53:35;21.80;;;5.15;;
57443;SDS011;43289;52.962;6.196;2024-03-23T03:56:01;15.55;;;5.10;;
57443;SDS011;43289;52.962;6.196;2024-03-23T03:58:27;26.60;;;5.13;;
57443;SDS011;43289;52.962;6.196;2024-03-23T04:00:53;24.60;;;5.72;;
57443;SDS011;43289;52.962;6.196;2024-03-23T04:03:19;15.68;;;4.70;;
57443;SDS011;43289;52.962;6.196;2024-03-23T04:05:54;15.02;;;5.35;;
57443;SDS011;43289;52.962;6.196;2024-03-23T04:08:20;17.48;;;5.32;;
57443;SDS011;43289;52.962;6.196;2024-03-23T04:10:46;18.80;;;3.95;;
57443;SDS011;43289;52.962;6.196;2024-03-23T04:13:12;14.45;;;4.93;;
57443;SDS011;43289;52.962;6.196;2024-03-23T04:15:38;12.30;;;4.53;;
57443;SDS011;43289;52.962;6.196;2024-03-23T04:18:04;16.05;;;5.25;;
57443;SDS011;43289;52.962;6.196;2024-03-23T04:20:30;16.73;;;4.93;;
57443;SDS011;43289;52.962;6.196;2024-03-23T04:22:57;11.27;;;4.82;;
57443;SDS011;43289;52.962;6.196;2024-03-23T04:25:23;14.52;;;4.85;;
57443;SDS011;43289;52.962;6.196;2024-03-23T04:27:49;15.15;;;4.53;;
57443;SDS011;43289;52.962;6.196;2024-03-23T04:30:15;21.23;;;3.97;;
57443;SDS011;43289;52.962;6.196;2024-03-23T04:32:41;16.52;;;4.50;;
57443;SDS011;43289;52.962;6.196;2024-03-23T04:35:07;17.88;;;4.18;;
57443;SDS011;43289;52.962;6.196;2024-03-23T04:37:36;13.82;;;4.30;;
57443;SDS011;43289;52.962;6.196;2024-03-23T04:40:08;15.32;;;3.92;;
57443;SDS011;43289;52.962;6.196;2024-03-23T04:42:33;17.80;;;4.00;;
57443;SDS011;43289;52.962;6.196;2024-03-23T04:44:59;21.75;;;4.97;;
57443;SDS011;43289;52.962;6.196;2024-03-23T04:47:25;11.77;;;4.90;;
57443;SDS011;43289;52.962;6.196;2024-03-23T04:49:51;15.82;;;4.00;;
57443;SDS011;43289;52.962;6.196;2024-03-23T04:52:17;14.82;;;4.25;;
57443;SDS011;43289;52.962;6.196;2024-03-23T04:54:43;13.73;;;3.72;;
57443;SDS011;43289;52.962;6.196;2024-03-23T04:57:10;17.73;;;4.30;;
57443;SDS011;43289;52.962;6.196;2024-03-23T04:59:36;15.40;;;4.43;;
57443;SDS011;43289;52.962;6.196;2024-03-23T05:02:02;14.85;;;3.20;;
57443;SDS011;43289;52.962;6.196;2024-03-23T05:04:28;17.05;;;3.75;;
57443;SDS011;43289;52.962;6.196;2024-03-23T05:06:53;14.45;;;3.20;;
57443;SDS011;43289;52.962;6.196;2024-03-23T05:09:19;13.50;;;3.60;;
57443;SDS011;43289;52.962;6.196;2024-03-23T05:11:45;11.75;;;3.00;;
57443;SDS011;43289;52.962;6.196;2024-03-23T05:14:12;11.45;;;3.35;;
57443;SDS011;43289;52.962;6.196;2024-03-23T05:16:38;15.43;;;3.20;;
57443;SDS011;43289;52.962;6.196;2024-03-23T05:19:04;25.65;;;5.15;;
57443;SDS011;43289;52.962;6.196;2024-03-23T05:21:30;10.60;;;3.47;;
57443;SDS011;43289;52.962;6.196;2024-03-23T05:23:56;14.52;;;3.20;;
57443;SDS011;43289;52.962;6.196;2024-03-23T05:26:22;12.38;;;3.67;;
57443;SDS011;43289;52.962;6.196;2024-03-23T05:28:48;14.30;;;3.92;;
57443;SDS011;43289;52.962;6.196;2024-03-23T05:31:22;13.43;;;3.67;;
57443;SDS011;43289;52.962;6.196;2024-03-23T05:33:52;14.18;;;3.85;;
57443;SDS011;43289;52.962;6.196;2024-03-23T05:36:17;24.13;;;5.15;;
57443;SDS011;43289;52.962;6.196;2024-03-23T05:38:43;12.88;;;3.40;;
57443;SDS011;43289;52.962;6.196;2024-03-23T05:41:09;9.38;;;2.95;;
57443;SDS011;43289;52.962;6.196;2024-03-23T05:43:35;16.35;;;4.60;;
57443;SDS011;43289;52.962;6.196;2024-03-23T05:46:01;17.73;;;3.67;;
57443;SDS011;43289;52.962;6.196;2024-03-23T05:48:27;20.05;;;4.55;;
57443;SDS011;43289;52.962;6.196;2024-03-23T05:50:53;13.50;;;4.10;;
57443;SDS011;43289;52.962;6.196;2024-03-23T05:53:19;9.98;;;3.05;;
57443;SDS011;43289;52.962;6.196;2024-03-23T05:55:48;16.00;;;3.78;;
57443;SDS011;43289;52.962;6.196;2024-03-23T05:58:15;17.35;;;3.85;;
57443;SDS011;43289;52.962;6.196;2024-03-23T06:00:42;15.00;;;3.28;;
57443;SDS011;43289;52.962;6.196;2024-03-23T06:03:08;13.38;;;3.28;;
57443;SDS011;43289;52.962;6.196;2024-03-23T06:05:35;13.20;;;3.60;;
57443;SDS011;43289;52.962;6.196;2024-03-23T06:08:01;8.52;;;2.53;;
57443;SDS011;43289;52.962;6.196;2024-03-23T06:10:27;5.20;;;1.67;;
57443;SDS011;43289;52.962;6.196;2024-03-23T06:12:53;9.10;;;2.10;;
57443;SDS011;43289;52.962;6.196;2024-03-23T06:15:19;5.35;;;1.92;;
57443;SDS011;43289;52.962;6.196;2024-03-23T06:17:45;5.82;;;1.70;;
57443;SDS011;43289;52.962;6.196;2024-03-23T06:20:10;7.20;;;1.65;;
57443;SDS011;43289;52.962;6.196;2024-03-23T06:22:37;6.30;;;1.98;;
57443;SDS011;43289;52.962;6.196;2024-03-23T06:25:04;5.05;;;1.73;;
57443;SDS011;43289;52.962;6.196;2024-03-23T06:27:30;4.53;;;1.80;;
57443;SDS011;43289;52.962;6.196;2024-03-23T06:29:57;4.30;;;1.88;;
57443;SDS011;43289;52.962;6.196;2024-03-23T06:32:23;8.63;;;1.88;;
57443;SDS011;43289;52.962;6.196;2024-03-23T06:34:49;7.50;;;2.40;;
57443;SDS011;43289;52.962;6.196;2024-03-23T06:37:14;7.45;;;2.60;;
57443;SDS011;43289;52.962;6.196;2024-03-23T06:39:40;7.57;;;2.30;;
57443;SDS011;43289;52.962;6.196;2024-03-23T06:42:05;12.60;;;3.17;;
57443;SDS011;43289;52.962;6.196;2024-03-23T06:44:33;9.70;;;2.47;;
57443;SDS011;43289;52.962;6.196;2024-03-23T06:46:58;8.98;;;2.90;;
57443;SDS011;43289;52.962;6.196;2024-03-23T06:49:24;10.02;;;3.28;;
57443;SDS011;43289;52.962;6.196;2024-03-23T06:51:50;10.05;;;3.53;;
57443;SDS011;43289;52.962;6.196;2024-03-23T06:54:17;9.20;;;3.15;;
57443;SDS011;43289;52.962;6.196;2024-03-23T06:56:46;10.75;;;3.03;;
57443;SDS011;43289;52.962;6.196;2024-03-23T06:59:12;10.70;;;3.25;;
57443;SDS011;43289;52.962;6.196;2024-03-23T07:01:38;12.68;;;4.50;;
57443;SDS011;43289;52.962;6.196;2024-03-23T07:04:04;8.70;;;2.85;;
57443;SDS011;43289;52.962;6.196;2024-03-23T07:06:30;10.73;;;3.88;;
57443;SDS011;43289;52.962;6.196;2024-03-23T07:08:56;14.38;;;3.53;;
57443;SDS011;43289;52.962;6.196;2024-03-23T07:11:23;9.70;;;2.67;;
57443;SDS011;43289;52.962;6.196;2024-03-23T07:13:50;10.68;;;2.83;;
57443;SDS011;43289;52.962;6.196;2024-03-23T07:16:16;8.35;;;3.50;;
57443;SDS011;43289;52.962;6.196;2024-03-23T07:18:42;8.20;;;2.63;;
57443;SDS011;43289;52.962;6.196;2024-03-23T07:21:08;9.00;;;3.22;;
57443;SDS011;43289;52.962;6.196;2024-03-23T07:23:34;13.05;;;3.45;;
57443;SDS011;43289;52.962;6.196;2024-03-23T07:26:01;15.68;;;3.45;;
57443;SDS011;43289;52.962;6.196;2024-03-23T07:28:28;10.25;;;2.80;;
57443;SDS011;43289;52.962;6.196;2024-03-23T07:31:10;9.88;;;2.90;;
57443;SDS011;43289;52.962;6.196;2024-03-23T07:33:36;7.88;;;2.33;;
57443;SDS011;43289;52.962;6.196;2024-03-23T07:36:03;7.28;;;2.28;;
57443;SDS011;43289;52.962;6.196;2024-03-23T07:38:30;9.48;;;2.80;;
57443;SDS011;43289;52.962;6.196;2024-03-23T07:41:05;8.45;;;2.45;;
57443;SDS011;43289;52.962;6.196;2024-03-23T07:43:31;6.18;;;2.33;;
57443;SDS011;43289;52.962;6.196;2024-03-23T07:45:58;11.50;;;3.25;;
57443;SDS011;43289;52.962;6.196;2024-03-23T07:48:24;7.07;;;2.42;;
57443;SDS011;43289;52.962;6.196;2024-03-23T07:51:03;5.38;;;2.58;;
57443;SDS011;43289;52.962;6.196;2024-03-23T07:53:30;5.70;;;2.25;;
57443;SDS011;43289;52.962;6.196;2024-03-23T07:56:00;11.35;;;2.63;;
57443;SDS011;43289;52.962;6.196;2024-03-23T07:58:26;12.20;;;3.38;;
57443;SDS011;43289;52.962;6.196;2024-03-23T08:00:53;11.60;;;2.53;;
57443;SDS011;43289;52.962;6.196;2024-03-23T08:03:19;7.25;;;2.75;;
57443;SDS011;43289;52.962;6.196;2024-03-23T08:05:45;7.57;;;2.65;;
57443;SDS011;43289;52.962;6.196;2024-03-23T08:08:11;9.52;;;2.97;;
57443;SDS011;43289;52.962;6.196;2024-03-23T08:10:58;6.22;;;2.72;;
57443;SDS011;43289;52.962;6.196;2024-03-23T08:13:23;9.52;;;2.65;;
57443;SDS011;43289;52.962;6.196;2024-03-23T08:15:49;12.20;;;3.03;;
57443;SDS011;43289;52.962;6.196;2024-03-23T08:18:14;8.25;;;3.28;;
57443;SDS011;43289;52.962;6.196;2024-03-23T08:20:43;11.65;;;3.25;;
57443;SDS011;43289;52.962;6.196;2024-03-23T08:23:08;10.65;;;3.30;;
57443;SDS011;43289;52.962;6.196;2024-03-23T08:25:34;9.70;;;3.88;;
57443;SDS011;43289;52.962;6.196;2024-03-23T08:28:00;9.82;;;3.55;;
57443;SDS011;43289;52.962;6.196;2024-03-23T08:30:26;8.40;;;3.42;;
57443;SDS011;43289;52.962;6.196;2024-03-23T08:32:52;10.50;;;3.45;;
57443;SDS011;43289;52.962;6.196;2024-03-23T08:35:18;13.25;;;3.33;;
57443;SDS011;43289;52.962;6.196;2024-03-23T08:37:45;11.23;;;4.25;;
57443;SDS011;43289;52.962;6.196;2024-03-23T08:40:11;13.15;;;3.17;;
57443;SDS011;43289;52.962;6.196;2024-03-23T08:42:37;10.57;;;4.00;;
57443;SDS011;43289;52.962;6.196;2024-03-23T08:45:04;9.95;;;3.78;;
57443;SDS011;43289;52.962;6.196;2024-03-23T08:47:34;11.30;;;2.28;;
57443;SDS011;43289;52.962;6.196;2024-03-23T08:50:00;9.48;;;2.38;;
57443;SDS011;43289;52.962;6.196;2024-03-23T08:52:27;8.70;;;2.08;;
57443;SDS011;43289;52.962;6.196;2024-03-23T08:54:54;7.38;;;2.03;;
57443;SDS011;43289;52.962;6.196;2024-03-23T08:57:21;9.88;;;2.63;;
57443;SDS011;43289;52.962;6.196;2024-03-23T08:59:47;12.20;;;3.10;;
57443;SDS011;43289;52.962;6.196;2024-03-23T09:02:13;14.75;;;3.20;;
57443;SDS011;43289;52.962;6.196;2024-03-23T09:04:49;13.82;;;2.65;;
57443;SDS011;43289;52.962;6.196;2024-03-23T09:07:15;5.57;;;2.40;;
57443;SDS011;43289;52.962;6.196;2024-03-23T09:09:41;9.43;;;2.40;;
57443;SDS011;43289;52.962;6.196;2024-03-23T09:12:07;8.20;;;2.38;;
57443;SDS011;43289;52.962;6.196;2024-03-23T09:14:33;7.30;;;2.58;;
57443;SDS011;43289;52.962;6.196;2024-03-23T09:17:00;5.65;;;2.38;;
57443;SDS011;43289;52.962;6.196;2024-03-23T09:19:29;10.32;;;2.22;;
57443;SDS011;43289;52.962;6.196;2024-03-23T09:21:55;7.90;;;2.45;;
57443;SDS011;43289;52.962;6.196;2024-03-23T09:24:21;11.25;;;2.60;;
57443;SDS011;43289;52.962;6.196;2024-03-23T09:26:47;6.13;;;1.92;;
57443;SDS011;43289;52.962;6.196;2024-03-23T09:29:13;8.40;;;2.50;;
57443;SDS011;43289;52.962;6.196;2024-03-23T09:31:40;12.18;;;3.53;;
57443;SDS011;43289;52.962;6.196;2024-03-23T09:34:06;11.50;;;2.17;;
57443;SDS011;43289;52.962;6.196;2024-03-23T09:36:32;12.55;;;2.47;;
57443;SDS011;43289;52.962;6.196;2024-03-23T09:38:58;11.10;;;2.70;;
57443;SDS011;43289;52.962;6.196;2024-03-23T09:41:24;12.57;;;3.20;;
57443;SDS011;43289;52.962;6.196;2024-03-23T09:43:53;17.65;;;3.17;;
57443;SDS011;43289;52.962;6.196;2024-03-23T09:46:19;12.55;;;3.58;;
57443;SDS011;43289;52.962;6.196;2024-03-23T09:48:46;8.10;;;3.03;;
57443;SDS011;43289;52.962;6.196;2024-03-23T09:51:12;13.07;;;3.53;;
57443;SDS011;43289;52.962;6.196;2024-03-23T09:53:38;7.53;;;3.15;;
57443;SDS011;43289;52.962;6.196;2024-03-23T09:56:04;8.95;;;2.40;;
57443;SDS011;43289;52.962;6.196;2024-03-23T09:58:30;6.85;;;2.25;;
57443;SDS011;43289;52.962;6.196;2024-03-23T10:01:00;9.10;;;2.40;;
57443;SDS011;43289;52.962;6.196;2024-03-23T10:03:27;11.50;;;2.20;;
57443;SDS011;43289;52.962;6.196;2024-03-23T10:06:00;4.55;;;1.83;;
57443;SDS011;43289;52.962;6.196;2024-03-23T10:08:28;5.40;;;1.90;;
57443;SDS011;43289;52.962;6.196;2024-03-23T10:10:55;8.85;;;3.53;;
57443;SDS011;43289;52.962;6.196;2024-03-23T10:13:24;9.80;;;2.30;;
57443;SDS011;43289;52.962;6.196;2024-03-23T10:16:00;10.52;;;2.50;;
57443;SDS011;43289;52.962;6.196;2024-03-23T10:18:26;7.68;;;2.78;;
57443;SDS011;43289;52.962;6.196;2024-03-23T10:23:31;6.15;;;2.92;;
57443;SDS011;43289;52.962;6.196;2024-03-23T10:26:17;4.03;;;1.40;;
57443;SDS011;43289;52.962;6.196;2024-03-23T10:29:17;6.15;;;1.10;;
57443;SDS011;43289;52.962;6.196;2024-03-23T10:31:37;12.27;;;2.08;;
57443;SDS011;43289;52.962;6.196;2024-03-23T10:34:06;5.35;;;1.40;;
57443;SDS011;43289;52.962;6.196;2024-03-23T10:36:32;3.42;;;1.35;;
57443;SDS011;43289;52.962;6.196;2024-03-23T10:39:02;5.43;;;1.20;;
57443;SDS011;43289;52.962;6.196;2024-03-23T10:41:28;6.22;;;1.45;;
57443;SDS011;43289;52.962;6.196;2024-03-23T10:43:56;3.80;;;1.63;;
57443;SDS011;43289;52.962;6.196;2024-03-23T10:46:24;3.25;;;1.40;;
57443;SDS011;43289;52.962;6.196;2024-03-23T10:48:50;4.28;;;1.98;;
57443;SDS011;43289;52.962;6.196;2024-03-23T10:51:16;4.22;;;1.52;;
57443;SDS011;43289;52.962;6.196;2024-03-23T10:53:42;3.10;;;1.45;;
57443;SDS011;43289;52.962;6.196;2024-03-23T10:56:08;4.65;;;1.60;;
57443;SDS011;43289;52.962;6.196;2024-03-23T10:58:46;6.13;;;2.15;;
57443;SDS011;43289;52.962;6.196;2024-03-23T11:01:14;8.38;;;2.72;;
57443;SDS011;43289;52.962;6.196;2024-03-23T11:03:47;13.27;;;1.92;;
57443;SDS011;43289;52.962;6.196;2024-03-23T11:06:33;6.70;;;2.75;;
57443;SDS011;43289;52.962;6.196;2024-03-23T11:08:59;4.43;;;1.60;;
57443;SDS011;43289;52.962;6.196;2024-03-23T11:11:25;7.10;;;2.13;;
57443;SDS011;43289;52.962;6.196;2024-03-23T11:13:52;3.25;;;1.52;;
57443;SDS011;43289;52.962;6.196;2024-03-23T11:16:25;2.70;;;1.35;;
57443;SDS011;43289;52.962;6.196;2024-03-23T11:21:56;4.65;;;1.27;;
57443;SDS011;43289;52.962;6.196;2024-03-23T11:24:22;6.70;;;1.42;;
57443;SDS011;43289;52.962;6.196;2024-03-23T11:26:49;6.75;;;1.77;;
57443;SDS011;43289;52.962;6.196;2024-03-23T11:29:16;8.93;;;2.30;;
57443;SDS011;43289;52.962;6.196;2024-03-23T11:31:49;11.85;;;2.95;;
57443;SDS011;43289;52.962;6.196;2024-03-23T11:34:19;10.18;;;2.22;;
57443;SDS011;43289;52.962;6.196;2024-03-23T11:36:46;5.07;;;1.58;;
57443;SDS011;43289;52.962;6.196;2024-03-23T11:41:51;1.95;;;0.80;;
57443;SDS011;43289;52.962;6.196;2024-03-23T11:44:21;2.42;;;0.85;;
57443;SDS011;43289;52.962;6.196;2024-03-23T11:46:48;1.85;;;0.60;;
57443;SDS011;43289;52.962;6.196;2024-03-23T11:49:24;1.10;;;0.45;;
57443;SDS011;43289;52.962;6.196;2024-03-23T11:51:51;4.28;;;0.80;;
57443;SDS011;43289;52.962;6.196;2024-03-23T11:54:25;2.47;;;1.02;;
57443;SDS011;43289;52.962;6.196;2024-03-23T11:59:33;6.03;;;1.38;;
57443;SDS011;43289;52.962;6.196;2024-03-23T12:01:59;4.88;;;1.80;;
57443;SDS011;43289;52.962;6.196;2024-03-23T12:04:28;8.68;;;1.98;;
57443;SDS011;43289;52.962;6.196;2024-03-23T12:09:36;5.40;;;2.15;;
57443;SDS011;43289;52.962;6.196;2024-03-23T12:12:15;6.63;;;1.92;;
57443;SDS011;43289;52.962;6.196;2024-03-23T12:14:44;8.30;;;2.58;;
57443;SDS011;43289;52.962;6.196;2024-03-23T12:17:14;8.88;;;2.55;;
57443;SDS011;43289;52.962;6.196;2024-03-23T12:19:42;8.02;;;3.05;;
57443;SDS011;43289;52.962;6.196;2024-03-23T12:22:09;6.28;;;2.10;;
57443;SDS011;43289;52.962;6.196;2024-03-23T12:24:36;7.80;;;2.58;;
57443;SDS011;43289;52.962;6.196;2024-03-23T12:27:04;12.98;;;3.00;;
57443;SDS011;43289;52.962;6.196;2024-03-23T12:29:30;10.07;;;2.28;;
57443;SDS011;43289;52.962;6.196;2024-03-23T12:32:00;7.65;;;2.40;;
57443;SDS011;43289;52.962;6.196;2024-03-23T12:34:26;9.82;;;3.17;;
57443;SDS011;43289;52.962;6.196;2024-03-23T12:36:52;11.23;;;3.13;;
57443;SDS011;43289;52.962;6.196;2024-03-23T12:39:18;12.60;;;3.13;;
57443;SDS011;43289;52.962;6.196;2024-03-23T12:41:48;9.68;;;2.05;;
57443;SDS011;43289;52.962;6.196;2024-03-23T12:44:14;9.10;;;2.13;;
57443;SDS011;43289;52.962;6.196;2024-03-23T12:46:43;8.68;;;2.25;;
57443;SDS011;43289;52.962;6.196;2024-03-23T12:49:09;7.57;;;2.35;;
57443;SDS011;43289;52.962;6.196;2024-03-23T12:51:35;7.25;;;2.55;;
57443;SDS011;43289;52.962;6.196;2024-03-23T12:54:02;5.13;;;1.88;;
57443;SDS011;43289;52.962;6.196;2024-03-23T12:56:28;10.43;;;2.78;;
57443;SDS011;43289;52.962;6.196;2024-03-23T12:58:54;7.00;;;2.22;;
57443;SDS011;43289;52.962;6.196;2024-03-23T13:01:22;11.68;;;3.05;;
57443;SDS011;43289;52.962;6.196;2024-03-23T13:03:48;9.02;;;3.10;;
57443;SDS011;43289;52.962;6.196;2024-03-23T13:06:15;8.88;;;2.75;;
57443;SDS011;43289;52.962;6.196;2024-03-23T13:08:43;10.23;;;2.95;;
57443;SDS011;43289;52.962;6.196;2024-03-23T13:11:09;10.23;;;3.00;;
57443;SDS011;43289;52.962;6.196;2024-03-23T13:13:36;9.05;;;2.63;;
57443;SDS011;43289;52.962;6.196;2024-03-23T13:16:02;8.43;;;2.90;;
57443;SDS011;43289;52.962;6.196;2024-03-23T13:18:29;10.02;;;2.30;;
57443;SDS011;43289;52.962;6.196;2024-03-23T13:20:55;10.98;;;3.05;;
57443;SDS011;43289;52.962;6.196;2024-03-23T13:23:21;6.38;;;1.98;;
57443;SDS011;43289;52.962;6.196;2024-03-23T13:25:54;7.05;;;1.80;;
57443;SDS011;43289;52.962;6.196;2024-03-23T13:28:21;8.80;;;2.28;;
57443;SDS011;43289;52.962;6.196;2024-03-23T13:33:16;6.53;;;2.58;;
57443;SDS011;43289;52.962;6.196;2024-03-23T13:35:52;7.32;;;2.97;;
57443;SDS011;43289;52.962;6.196;2024-03-23T13:38:18;8.45;;;2.67;;
57443;SDS011;43289;52.962;6.196;2024-03-23T13:43:16;6.40;;;3.10;;
57443;SDS011;43289;52.962;6.196;2024-03-23T13:45:42;6.90;;;2.20;;
57443;SDS011;43289;52.962;6.196;2024-03-23T13:48:08;10.85;;;2.38;;
57443;SDS011;43289;52.962;6.196;2024-03-23T13:50:34;15.40;;;2.33;;
57443;SDS011;43289;52.962;6.196;2024-03-23T13:53:01;5.75;;;1.60;;
57443;SDS011;43289;52.962;6.196;2024-03-23T13:55:27;5.20;;;2.03;;
57443;SDS011;43289;52.962;6.196;2024-03-23T13:57:53;9.10;;;2.55;;
57443;SDS011;43289;52.962;6.196;2024-03-23T14:00:19;10.95;;;2.25;;
57443;SDS011;43289;52.962;6.196;2024-03-23T14:02:45;13.50;;;3.05;;
57443;SDS011;43289;52.962;6.196;2024-03-23T14:05:11;12.80;;;2.53;;
57443;SDS011;43289;52.962;6.196;2024-03-23T14:07:37;8.18;;;3.15;;
57443;SDS011;43289;52.962;6.196;2024-03-23T14:10:04;10.73;;;2.72;;
57443;SDS011;43289;52.962;6.196;2024-03-23T14:12:31;5.10;;;2.33;;
57443;SDS011;43289;52.962;6.196;2024-03-23T14:14:57;5.30;;;2.67;;
57443;SDS011;43289;52.962;6.196;2024-03-23T14:17:24;10.10;;;2.95;;
57443;SDS011;43289;52.962;6.196;2024-03-23T14:19:51;10.02;;;2.15;;
57443;SDS011;43289;52.962;6.196;2024-03-23T14:22:17;12.68;;;2.60;;
57443;SDS011;43289;52.962;6.196;2024-03-23T14:24:44;5.75;;;1.52;;
57443;SDS011;43289;52.962;6.196;2024-03-23T14:27:10;6.28;;;2.00;;
57443;SDS011;43289;52.962;6.196;2024-03-23T14:32:07;4.35;;;1.73;;
57443;SDS011;43289;52.962;6.196;2024-03-23T14:37:56;6.25;;;1.60;;
57443;SDS011;43289;52.962;6.196;2024-03-23T14:40:22;7.95;;;1.90;;
57443;SDS011;43289;52.962;6.196;2024-03-23T14:42:48;5.28;;;1.88;;
57443;SDS011;43289;52.962;6.196;2024-03-23T14:45:14;6.78;;;1.92;;
57443;SDS011;43289;52.962;6.196;2024-03-23T14:47:40;6.72;;;2.35;;
57443;SDS011;43289;52.962;6.196;2024-03-23T14:50:08;11.02;;;2.20;;
57443;SDS011;43289;52.962;6.196;2024-03-23T14:52:36;8.00;;;1.92;;
57443;SDS011;43289;52.962;6.196;2024-03-23T14:55:02;7.05;;;2.47;;
57443;SDS011;43289;52.962;6.196;2024-03-23T14:57:29;5.95;;;2.03;;
57443;SDS011;43289;52.962;6.196;2024-03-23T14:59:55;4.90;;;1.50;;
57443;SDS011;43289;52.962;6.196;2024-03-23T15:02:21;9.00;;;2.10;;
57443;SDS011;43289;52.962;6.196;2024-03-23T15:04:47;13.65;;;2.92;;
57443;SDS011;43289;52.962;6.196;2024-03-23T15:07:13;7.50;;;1.98;;
57443;SDS011;43289;52.962;6.196;2024-03-23T15:09:39;8.98;;;1.83;;
57443;SDS011;43289;52.962;6.196;2024-03-23T15:12:05;3.88;;;1.20;;
57443;SDS011;43289;52.962;6.196;2024-03-23T15:14:32;3.83;;;1.38;;
57443;SDS011;43289;52.962;6.196;2024-03-23T15:16:59;5.13;;;1.38;;
57443;SDS011;43289;52.962;6.196;2024-03-23T15:19:31;7.68;;;1.80;;
57443;SDS011;43289;52.962;6.196;2024-03-23T15:21:57;4.43;;;1.08;;
57443;SDS011;43289;52.962;6.196;2024-03-23T15:24:23;9.10;;;2.30;;
57443;SDS011;43289;52.962;6.196;2024-03-23T15:26:50;6.82;;;2.40;;
57443;SDS011;43289;52.962;6.196;2024-03-23T15:29:17;4.00;;;1.15;;
57443;SDS011;43289;52.962;6.196;2024-03-23T15:31:43;3.60;;;1.40;;
57443;SDS011;43289;52.962;6.196;2024-03-23T15:34:11;4.20;;;1.55;;
57443;SDS011;43289;52.962;6.196;2024-03-23T15:36:37;6.20;;;1.80;;
57443;SDS011;43289;52.962;6.196;2024-03-23T15:39:06;5.68;;;1.70;;
57443;SDS011;43289;52.962;6.196;2024-03-23T15:41:32;5.63;;;1.80;;
57443;SDS011;43289;52.962;6.196;2024-03-23T15:44:00;3.55;;;1.65;;
57443;SDS011;43289;52.962;6.196;2024-03-23T15:46:26;7.53;;;2.03;;
57443;SDS011;43289;52.962;6.196;2024-03-23T15:48:52;4.82;;;1.70;;
57443;SDS011;43289;52.962;6.196;2024-03-23T15:51:19;5.88;;;1.50;;
57443;SDS011;43289;52.962;6.196;2024-03-23T15:53:46;8.38;;;1.63;;
57443;SDS011;43289;52.962;6.196;2024-03-23T15:56:12;7.55;;;1.45;;
57443;SDS011;43289;52.962;6.196;2024-03-23T15:58:38;5.00;;;1.80;;